createdAt,value
2023-02-25T00:01:37.233Z,5.22
2023-02-25T00:04:04.339Z,5.14
2023-02-25T00:06:31.961Z,5.16
2023-02-25T00:08:59.004Z,5.09
2023-02-25T00:11:26.651Z,5.11
2023-02-25T00:13:53.913Z,4.99
2023-02-25T00:16:23.198Z,5.04
2023-02-25T00:18:58.188Z,5.02
2023-02-25T00:21:27.101Z,4.97
2023-02-25T00:23:54.146Z,4.95
2023-02-25T00:26:23.130Z,4.90
2023-02-25T00:28:50.805Z,4.88
2023-02-25T00:31:21.684Z,4.83
2023-02-25T00:33:50.333Z,4.83
2023-02-25T00:36:26.310Z,4.75
2023-02-25T00:38:55.788Z,4.70
2023-02-25T00:41:27.050Z,4.65
2023-02-25T00:43:59.418Z,4.60
2023-02-25T00:46:28.240Z,4.50
2023-02-25T00:48:55.503Z,4.47
2023-02-25T00:51:29.490Z,4.43
2023-02-25T00:53:56.797Z,4.39
2023-02-25T00:56:26.087Z,4.34
2023-02-25T00:58:54.056Z,4.29
2023-02-25T01:01:29.203Z,4.26
2023-02-25T01:03:57.774Z,4.21
2023-02-25T01:06:26.949Z,4.21
2023-02-25T01:08:54.346Z,4.11
2023-02-25T01:11:29.443Z,4.13
2023-02-25T01:13:59.456Z,4.07
2023-02-25T01:16:29.901Z,4.04
2023-02-25T01:18:59.368Z,4.03
2023-02-25T01:21:30.268Z,3.91
2023-02-25T01:24:00.018Z,3.88
2023-02-25T01:26:30.325Z,3.86
2023-02-25T01:28:57.956Z,3.84
2023-02-25T01:31:29.650Z,3.83
2023-02-25T01:34:01.388Z,3.81
2023-02-25T01:36:31.416Z,3.80
2023-02-25T01:38:59.515Z,3.76
2023-02-25T01:41:29.422Z,3.77
2023-02-25T01:44:09.237Z,3.74
2023-02-25T01:46:38.090Z,3.74
2023-02-25T01:49:11.614Z,3.70
2023-02-25T01:51:39.805Z,3.73
2023-02-25T01:54:09.753Z,3.67
2023-02-25T01:56:40.382Z,3.64
2023-02-25T01:59:08.357Z,3.66
2023-02-25T02:01:39.118Z,3.65
2023-02-25T02:04:09.091Z,3.60
2023-02-25T02:06:39.253Z,3.59
2023-02-25T02:09:10.398Z,3.54
2023-02-25T02:11:38.306Z,3.54
2023-02-25T02:14:07.761Z,3.56
2023-02-25T02:16:54.022Z,3.58
2023-02-25T02:19:25.008Z,3.51
2023-02-25T02:22:05.440Z,3.51
2023-02-25T02:24:55.618Z,3.54
2023-02-25T02:27:37.520Z,3.56
2023-02-25T02:30:29.401Z,3.56
2023-02-25T02:33:20.334Z,3.53
2023-02-25T02:36:02.452Z,3.51
2023-02-25T02:38:39.073Z,3.52
2023-02-25T02:41:09.335Z,3.53
2023-02-25T02:43:48.203Z,3.50
2023-02-25T02:46:38.368Z,3.53
2023-02-25T02:49:11.623Z,3.54
2023-02-25T02:51:47.064Z,3.59
2023-02-25T02:54:16.391Z,3.56
2023-02-25T02:56:46.987Z,3.54
2023-02-25T02:59:25.416Z,3.50
2023-02-25T03:02:06.602Z,3.49
2023-02-25T03:04:38.372Z,3.47
2023-02-25T03:07:09.131Z,3.47
2023-02-25T03:09:48.795Z,3.42
2023-02-25T03:12:16.338Z,3.44
2023-02-25T03:14:43.939Z,3.45
2023-02-25T03:17:15.760Z,3.49
2023-02-25T03:19:56.955Z,3.51
2023-02-25T03:22:29.843Z,3.49
2023-02-25T03:25:12.621Z,3.50
2023-02-25T03:27:44.591Z,3.42
2023-02-25T03:30:53.762Z,3.43
2023-02-25T03:33:37.732Z,3.42
2023-02-25T03:36:13.200Z,3.38
2023-02-25T03:38:46.171Z,3.42
2023-02-25T03:41:16.267Z,3.39
2023-02-25T03:43:47.078Z,3.35
2023-02-25T03:46:16.464Z,3.37
2023-02-25T03:48:44.664Z,3.31
2023-02-25T03:51:18.511Z,3.30
2023-02-25T03:53:45.876Z,3.29
2023-02-25T03:56:13.290Z,3.24
2023-02-25T03:58:42.973Z,3.21
2023-02-25T04:01:31.098Z,3.23
2023-02-25T04:03:58.158Z,3.17
2023-02-25T04:06:25.947Z,3.17
2023-02-25T04:08:53.140Z,3.09
2023-02-25T04:11:20.774Z,3.10
2023-02-25T04:13:47.784Z,3.12
2023-02-25T04:16:15.318Z,3.15
2023-02-25T04:18:42.627Z,3.17
2023-02-25T04:21:23.813Z,3.15
2023-02-25T04:23:50.971Z,3.14
2023-02-25T04:26:18.240Z,3.16
2023-02-25T04:28:45.720Z,3.15
2023-02-25T04:31:13.551Z,3.12
2023-02-25T04:33:41.207Z,3.10
2023-02-25T04:36:25.922Z,3.09
2023-02-25T04:38:54.419Z,3.13
2023-02-25T04:41:22.729Z,3.11
2023-02-25T04:43:50.189Z,3.09
2023-02-25T04:46:18.035Z,3.11
2023-02-25T04:48:45.171Z,3.15
2023-02-25T04:51:12.651Z,3.11
2023-02-25T04:53:39.713Z,3.12
2023-02-25T04:56:09.462Z,3.15
2023-02-25T04:58:37.351Z,3.16
2023-02-25T05:01:07.388Z,3.11
2023-02-25T05:03:35.675Z,3.02
2023-02-25T05:06:03.807Z,3.09
2023-02-25T05:08:30.887Z,3.10
2023-02-25T05:10:59.875Z,3.16
2023-02-25T05:13:30.975Z,3.15
2023-02-25T05:16:12.590Z,3.23
2023-02-25T05:18:46.065Z,3.23
2023-02-25T05:21:21.141Z,3.24
2023-02-25T05:23:50.069Z,3.19
2023-02-25T05:26:23.716Z,3.23
2023-02-25T05:28:58.520Z,3.22
2023-02-25T05:31:31.430Z,3.20
2023-02-25T05:33:59.757Z,3.16
2023-02-25T05:36:28.460Z,3.18
2023-02-25T05:38:59.087Z,3.19
2023-02-25T05:41:29.150Z,3.23
2023-02-25T05:43:58.371Z,3.28
2023-02-25T05:46:26.821Z,3.38
2023-02-25T05:48:54.327Z,3.46
2023-02-25T05:51:23.681Z,3.56
2023-02-25T05:53:51.749Z,3.58
2023-02-25T05:56:23.105Z,3.60
2023-02-25T05:58:51.026Z,3.71
2023-02-25T06:01:23.785Z,3.75
2023-02-25T06:06:50.423Z,3.95
2023-02-25T06:09:18.952Z,3.97
2023-02-25T06:11:49.805Z,4.17
2023-02-25T06:14:17.106Z,4.25
2023-02-25T06:16:45.406Z,4.35
2023-02-25T06:19:13.265Z,4.43
2023-02-25T06:21:47.302Z,4.56
2023-02-25T06:24:16.386Z,4.67
2023-02-25T06:26:43.860Z,4.78
2023-02-25T06:29:10.978Z,4.89
2023-02-25T06:31:39.916Z,5.03
2023-02-25T06:34:09.504Z,5.10
2023-02-25T06:36:41.268Z,5.23
2023-02-25T06:39:08.507Z,5.35
2023-02-25T06:41:35.839Z,5.46
2023-02-25T06:44:04.453Z,5.60
2023-02-25T06:46:32.102Z,5.82
2023-02-25T06:48:59.087Z,5.96
2023-02-25T06:51:26.712Z,6.11
2023-02-25T06:56:42.769Z,6.43
2023-02-25T06:59:10.047Z,6.53
2023-02-25T07:01:38.060Z,6.65
2023-02-25T07:09:34.181Z,7.00
2023-02-25T07:12:03.948Z,7.10
2023-02-25T07:14:34.517Z,7.19
2023-02-25T07:17:07.054Z,7.33
2023-02-25T07:19:34.612Z,7.42
2023-02-25T07:22:03.386Z,7.53
2023-02-25T07:24:32.258Z,7.71
2023-02-25T07:26:59.829Z,7.87
2023-02-25T07:29:27.893Z,8.06
2023-02-25T07:34:41.827Z,8.37
2023-02-25T07:37:13.842Z,8.53
2023-02-25T07:39:40.822Z,8.66
2023-02-25T07:42:08.190Z,8.82
2023-02-25T07:44:36.066Z,9.04
2023-02-25T07:47:03.635Z,9.20
2023-02-25T07:49:33.387Z,9.41
2023-02-25T07:52:00.983Z,9.43
2023-02-25T07:54:28.000Z,9.63
2023-02-25T07:56:55.320Z,9.81
2023-02-25T07:59:23.281Z,9.97
2023-02-25T08:01:50.816Z,10.05
2023-02-25T08:04:18.045Z,10.00
2023-02-25T08:06:46.338Z,10.06
2023-02-25T08:09:13.842Z,10.15
2023-02-25T08:11:41.447Z,10.22
2023-02-25T08:14:08.548Z,10.28
2023-02-25T08:16:36.076Z,10.26
2023-02-25T08:19:04.089Z,10.31
2023-02-25T08:21:33.091Z,10.36
2023-02-25T08:24:00.370Z,10.63
2023-02-25T08:29:12.771Z,10.81
2023-02-25T08:31:40.453Z,10.86
2023-02-25T08:34:07.799Z,10.98
2023-02-25T08:36:37.338Z,11.05
2023-02-25T08:39:04.742Z,11.14
2023-02-25T08:41:32.555Z,11.32
2023-02-25T08:44:01.369Z,11.44
2023-02-25T08:46:30.863Z,11.55
2023-02-25T08:48:58.271Z,11.68
2023-02-25T08:51:37.938Z,11.71
2023-02-25T08:54:09.160Z,11.75
2023-02-25T08:56:40.297Z,11.95
2023-02-25T08:59:07.364Z,12.08
2023-02-25T09:01:46.808Z,12.07
2023-02-25T09:04:20.553Z,12.11
2023-02-25T09:06:48.605Z,12.06
2023-02-25T09:09:17.344Z,12.13
2023-02-25T09:11:46.270Z,12.14
2023-02-25T09:14:14.282Z,12.20
2023-02-25T09:16:43.990Z,12.22
2023-02-25T09:19:12.643Z,12.34
2023-02-25T09:21:42.924Z,12.37
2023-02-25T09:24:10.289Z,12.32
2023-02-25T09:26:37.846Z,12.40
2023-02-25T09:29:06.033Z,12.42
2023-02-25T09:31:38.406Z,12.31
2023-02-25T09:34:27.270Z,12.22
2023-02-25T09:37:14.476Z,12.13
2023-02-25T09:39:43.987Z,12.04
2023-02-25T09:42:25.954Z,12.01
2023-02-25T09:44:59.605Z,11.95
2023-02-25T09:47:36.910Z,11.91
2023-02-25T09:50:14.143Z,11.77
2023-02-25T09:52:53.737Z,11.70
2023-02-25T09:55:59.513Z,11.69
2023-02-25T09:58:41.040Z,11.61
2023-02-25T10:01:15.958Z,11.65
2023-02-25T10:03:48.913Z,11.72
2023-02-25T10:06:36.889Z,11.83
2023-02-25T10:09:27.701Z,11.97
2023-02-25T10:12:02.576Z,12.13
2023-02-25T10:14:45.498Z,12.29
2023-02-25T10:17:51.198Z,12.31
2023-02-25T10:20:26.024Z,12.43
2023-02-25T10:23:01.069Z,12.45
2023-02-25T10:31:14.037Z,12.42
2023-02-25T10:33:48.465Z,12.41
2023-02-25T10:36:18.194Z,12.35
2023-02-25T10:41:36.536Z,12.31
2023-02-25T10:44:04.498Z,12.27
2023-02-25T10:46:39.174Z,12.35
2023-02-25T10:49:23.099Z,12.37
2023-02-25T10:52:03.751Z,12.44
2023-02-25T10:54:34.994Z,12.41
2023-02-25T10:57:13.760Z,12.39
2023-02-25T10:59:43.219Z,12.44
2023-02-25T11:02:23.760Z,12.44
2023-02-25T11:04:52.745Z,12.42
2023-02-25T11:07:40.071Z,12.50
2023-02-25T11:10:09.394Z,12.61
2023-02-25T11:13:06.492Z,12.66
2023-02-25T11:15:45.721Z,13.06
2023-02-25T11:18:34.784Z,13.62
2023-02-25T11:21:27.830Z,13.94
2023-02-25T11:24:03.559Z,14.26
2023-02-25T11:26:36.213Z,14.59
2023-02-25T11:29:41.607Z,14.80
2023-02-25T11:32:18.219Z,14.87
2023-02-25T11:34:54.175Z,14.74
2023-02-25T11:37:43.219Z,14.65
2023-02-25T11:40:25.248Z,14.87
2023-02-25T11:43:31.957Z,15.19
2023-02-25T11:46:33.238Z,15.88
2023-02-25T11:49:15.799Z,15.93
2023-02-25T11:52:01.385Z,15.49
2023-02-25T11:54:47.759Z,15.04
2023-02-25T12:00:34.799Z,14.72
2023-02-25T12:03:40.969Z,14.67
2023-02-25T12:06:34.872Z,14.73
2023-02-25T12:09:22.850Z,15.06
2023-02-25T12:12:29.678Z,15.93
2023-02-25T12:15:25.813Z,16.68
2023-02-25T12:18:22.329Z,17.16
2023-02-25T12:21:39.849Z,17.11
2023-02-25T12:24:19.223Z,16.78
2023-02-25T12:27:12.373Z,17.02
2023-02-25T12:29:56.423Z,17.00
2023-02-25T12:32:46.307Z,17.32
2023-02-25T12:35:32.627Z,17.90
2023-02-25T12:38:41.806Z,18.36
2023-02-25T12:41:24.284Z,17.95
2023-02-25T12:44:00.199Z,18.46
2023-02-25T12:47:02.295Z,18.69
2023-02-25T12:50:05.769Z,18.12
2023-02-25T12:52:39.599Z,17.26
2023-02-25T12:55:35.541Z,16.84
2023-02-25T12:58:48.376Z,16.43
2023-02-25T13:01:52.517Z,16.00
2023-02-25T13:04:37.896Z,15.75
2023-02-25T13:07:26.576Z,15.70
2023-02-25T13:10:02.695Z,15.66
2023-02-25T13:12:54.626Z,15.56
2023-02-25T13:22:51.998Z,16.11
2023-02-25T13:25:45.791Z,16.17
2023-02-25T13:28:22.111Z,15.99
2023-02-25T13:31:09.163Z,15.87
2023-02-25T13:33:36.177Z,15.82
2023-02-25T13:36:30.850Z,15.75
2023-02-25T13:39:26.290Z,15.70
2023-02-25T13:42:22.749Z,15.67
2023-02-25T13:45:06.745Z,15.69
2023-02-25T13:47:44.134Z,15.73
2023-02-25T13:50:58.592Z,15.65
2023-02-25T13:53:52.148Z,15.67
2023-02-25T13:57:00.154Z,15.58
2023-02-25T13:59:52.670Z,15.51
2023-02-25T14:02:34.927Z,15.42
2023-02-25T14:05:08.969Z,15.40
2023-02-25T14:07:56.101Z,15.44
2023-02-25T14:10:44.910Z,15.43
2023-02-25T14:13:58.424Z,15.40
2023-02-25T14:17:11.241Z,15.34
2023-02-25T14:19:50.556Z,15.32
2023-02-25T14:22:35.852Z,15.41
2023-02-25T14:25:20.515Z,15.53
2023-02-25T14:27:51.421Z,15.68
2023-02-25T14:33:58.434Z,15.95
2023-02-25T14:36:26.804Z,15.91
2023-02-25T14:39:05.747Z,15.63
2023-02-25T14:42:03.441Z,15.45
2023-02-25T14:44:54.876Z,15.24
2023-02-25T14:47:40.289Z,15.07
2023-02-25T14:51:09.005Z,14.99
2023-02-25T14:54:08.424Z,14.99
2023-02-25T14:57:14.112Z,14.99
2023-02-25T14:59:47.200Z,14.90
2023-02-25T15:02:26.753Z,14.81
2023-02-25T15:05:23.287Z,14.71
2023-02-25T15:08:21.702Z,14.59
2023-02-25T15:10:51.976Z,14.50
2023-02-25T15:13:55.973Z,14.41
2023-02-25T15:16:26.388Z,14.27
2023-02-25T15:19:17.039Z,14.22
2023-02-25T15:21:49.225Z,14.12
2023-02-25T15:24:47.911Z,14.05
2023-02-25T15:27:50.187Z,13.99
2023-02-25T15:30:29.293Z,13.91
2023-02-25T15:33:06.488Z,13.87
2023-02-25T15:35:34.277Z,13.84
2023-02-25T15:38:02.011Z,13.70
2023-02-25T15:40:32.265Z,13.71
2023-02-25T15:46:09.218Z,13.74
2023-02-25T15:48:43.556Z,13.74
2023-02-25T15:51:32.382Z,13.63
2023-02-25T15:53:59.680Z,13.54
2023-02-25T15:56:31.028Z,13.49
2023-02-25T15:59:00.034Z,13.43
2023-02-25T16:01:42.697Z,13.22
2023-02-25T16:04:48.959Z,13.12
2023-02-25T16:07:20.870Z,13.04
2023-02-25T16:09:54.521Z,13.02
2023-02-25T16:12:48.594Z,12.97
2023-02-25T16:15:40.742Z,12.84
2023-02-25T16:18:17.658Z,12.79
2023-02-25T16:20:58.245Z,12.69
2023-02-25T16:23:26.355Z,12.64
2023-02-25T16:26:35.831Z,12.57
2023-02-25T16:29:31.383Z,12.46
2023-02-25T16:32:05.345Z,12.44
2023-02-25T16:34:54.592Z,12.34
2023-02-25T16:40:49.979Z,12.26
2023-02-25T16:43:26.235Z,12.18
2023-02-25T16:46:18.422Z,12.13
2023-02-25T16:48:51.308Z,12.08
2023-02-25T16:51:28.330Z,12.01
2023-02-25T16:54:06.676Z,11.97
2023-02-25T16:56:34.856Z,11.91
2023-02-25T16:59:18.488Z,11.87
2023-02-25T17:01:59.210Z,11.82
2023-02-25T17:04:39.459Z,11.72
2023-02-25T17:07:21.246Z,11.71
2023-02-25T17:09:53.878Z,11.68
2023-02-25T17:12:26.845Z,11.69
2023-02-25T17:14:55.919Z,11.68
2023-02-25T17:17:29.065Z,11.69
2023-02-25T17:19:58.074Z,11.70
2023-02-25T17:22:28.591Z,11.76
2023-02-25T17:24:58.832Z,11.78
2023-02-25T17:27:28.738Z,11.81
2023-02-25T17:29:56.864Z,11.80
2023-02-25T17:32:27.547Z,11.81
2023-02-25T17:35:03.008Z,11.81
2023-02-25T17:37:33.535Z,11.80
2023-02-25T17:40:01.973Z,11.85
2023-02-25T17:42:37.666Z,11.84
2023-02-25T17:45:09.517Z,11.88
2023-02-25T17:47:47.034Z,11.82
2023-02-25T17:50:32.371Z,11.79
2023-02-25T17:53:00.757Z,11.75
2023-02-25T17:55:34.873Z,11.66
2023-02-25T17:58:03.965Z,11.54
2023-02-25T18:00:34.797Z,11.56
2023-02-25T18:03:26.771Z,11.45
2023-02-25T18:06:30.807Z,11.38
2023-02-25T18:09:29.808Z,11.32
2023-02-25T18:11:59.528Z,11.26
2023-02-25T18:14:43.631Z,11.21
2023-02-25T18:17:14.457Z,11.16
2023-02-25T18:19:45.915Z,11.13
2023-02-25T18:22:38.045Z,11.11
2023-02-25T18:25:27.770Z,11.06
2023-02-25T18:27:55.263Z,11.01
2023-02-25T18:30:26.529Z,10.98
2023-02-25T18:32:54.418Z,10.92
2023-02-25T18:35:22.212Z,10.84
2023-02-25T18:37:54.341Z,10.80
2023-02-25T18:40:36.559Z,10.79
2023-02-25T18:43:20.826Z,10.76
2023-02-25T18:45:48.626Z,10.75
2023-02-25T18:48:16.767Z,10.67
2023-02-25T18:50:46.820Z,10.66
2023-02-25T18:53:17.810Z,10.66
2023-02-25T18:55:45.434Z,10.61
2023-02-25T18:58:17.188Z,10.58
2023-02-25T19:00:47.337Z,10.55
2023-02-25T19:03:28.588Z,10.54
2023-02-25T19:05:57.026Z,10.54
2023-02-25T19:08:24.833Z,10.52
2023-02-25T19:10:53.933Z,10.56
2023-02-25T19:13:25.698Z,10.66
2023-02-25T19:15:52.925Z,10.62
2023-02-25T19:18:22.322Z,10.65
2023-02-25T19:20:58.128Z,10.65
2023-02-25T19:23:26.635Z,10.65
2023-02-25T19:25:59.731Z,10.65
2023-02-25T19:28:28.812Z,10.67
2023-02-25T19:30:56.128Z,10.67
2023-02-25T19:33:25.027Z,10.63
2023-02-25T19:35:52.179Z,10.61
2023-02-25T19:38:20.751Z,10.56
2023-02-25T19:40:49.088Z,10.53
2023-02-25T19:43:17.881Z,10.50
2023-02-25T19:45:50.142Z,10.45
2023-02-25T19:48:18.297Z,10.38
2023-02-25T19:50:45.730Z,10.36
2023-02-25T19:53:13.144Z,10.36
2023-02-25T19:58:26.966Z,10.29
2023-02-25T20:00:54.246Z,10.26
2023-02-25T20:03:23.150Z,10.19
2023-02-25T20:05:50.294Z,10.15
2023-02-25T20:08:17.735Z,10.17
2023-02-25T20:10:45.106Z,10.16
2023-02-25T20:13:15.097Z,10.14
2023-02-25T20:15:43.225Z,10.09
2023-02-25T20:18:10.582Z,10.06
2023-02-25T20:20:44.507Z,9.94
2023-02-25T20:23:12.621Z,9.88
2023-02-25T20:25:40.151Z,9.83
2023-02-25T20:28:12.137Z,9.83
2023-02-25T20:30:40.780Z,9.82
2023-02-25T20:33:08.753Z,9.80
2023-02-25T20:35:38.049Z,9.73
2023-02-25T20:38:33.976Z,9.66
2023-02-25T20:41:01.036Z,9.59
2023-02-25T20:43:28.753Z,9.46
2023-02-25T20:45:57.255Z,9.41
2023-02-25T20:48:31.581Z,9.31
2023-02-25T20:51:06.348Z,9.31
2023-02-25T20:53:34.169Z,9.25
2023-02-25T20:56:01.616Z,9.16
2023-02-25T20:58:30.248Z,9.05
2023-02-25T21:00:58.014Z,8.92
2023-02-25T21:03:25.983Z,8.81
2023-02-25T21:05:53.184Z,8.65
2023-02-25T21:08:20.552Z,8.55
2023-02-25T21:10:48.843Z,8.46
2023-02-25T21:13:16.542Z,8.40
2023-02-25T21:15:43.533Z,8.36
2023-02-25T21:18:11.307Z,8.30
2023-02-25T21:20:38.306Z,8.33
2023-02-25T21:23:05.711Z,8.33
2023-02-25T21:25:32.696Z,8.30
2023-02-25T21:28:00.716Z,8.29
2023-02-25T21:30:28.050Z,8.31
2023-02-25T21:32:56.045Z,8.31
2023-02-25T21:35:25.224Z,8.29
2023-02-25T21:37:52.649Z,8.31
2023-02-25T21:40:20.046Z,8.34
2023-02-25T21:42:47.548Z,8.32
2023-02-25T21:45:14.956Z,8.32
2023-02-25T21:47:42.340Z,8.32
2023-02-25T21:50:10.076Z,8.35
2023-02-25T21:52:39.684Z,8.36
2023-02-25T21:55:12.254Z,8.36
2023-02-25T21:57:43.260Z,8.33
2023-02-25T22:00:11.454Z,8.34
2023-02-25T22:02:40.458Z,8.29
2023-02-25T22:05:08.105Z,8.24
2023-02-25T22:07:35.884Z,8.23
2023-02-25T22:10:03.331Z,8.23
2023-02-25T22:12:31.109Z,8.18
2023-02-25T22:15:02.552Z,8.10
2023-02-25T22:17:30.454Z,8.04
2023-02-25T22:19:58.143Z,8.03
2023-02-25T22:22:25.688Z,8.06
2023-02-25T22:24:52.966Z,8.07
2023-02-25T22:27:20.345Z,8.03
2023-02-25T22:29:47.557Z,8.03
2023-02-25T22:32:15.300Z,8.05
2023-02-25T22:34:43.290Z,8.05
2023-02-25T22:37:10.642Z,7.96
2023-02-25T22:39:37.662Z,7.95
2023-02-25T22:42:05.216Z,7.88
2023-02-25T22:44:32.326Z,7.89
2023-02-25T22:46:59.724Z,7.88
2023-02-25T22:49:27.145Z,7.83
2023-02-25T22:51:54.568Z,7.82
2023-02-25T22:54:21.586Z,7.72
2023-02-25T22:56:49.978Z,7.72
2023-02-25T22:59:17.627Z,7.67
2023-02-25T23:01:45.254Z,7.63
2023-02-25T23:04:13.090Z,7.63
2023-02-25T23:06:44.511Z,7.56
2023-02-25T23:09:14.318Z,7.46
2023-02-25T23:11:47.185Z,7.45
2023-02-25T23:14:16.227Z,7.44
2023-02-25T23:16:44.922Z,7.40
2023-02-25T23:19:16.173Z,7.30
2023-02-25T23:21:44.261Z,7.33
2023-02-25T23:24:16.642Z,7.32
2023-02-25T23:26:45.736Z,7.31
2023-02-25T23:29:13.227Z,7.27
2023-02-25T23:31:47.110Z,7.30
2023-02-25T23:34:18.800Z,7.30
2023-02-25T23:36:46.629Z,7.29
2023-02-25T23:39:14.543Z,7.29
2023-02-25T23:41:42.360Z,7.24
2023-02-25T23:44:11.063Z,7.27
2023-02-25T23:46:38.601Z,7.29
2023-02-25T23:49:07.413Z,7.24
2023-02-25T23:51:36.714Z,7.25
2023-02-25T23:54:06.389Z,7.23
2023-02-25T23:56:35.319Z,7.22
2023-02-25T23:59:03.195Z,7.27
